Da Tong Yun — VRJL3 — position and weather

sailwx.info

Track history (hours):
 
Tides and Currents Weather Stations Pressure Air Temp Water Temp Dewpoint Dewpoint Depression Visibility Wind Speed Wind Dir Waves Ship Positions

Da Tong Yun

Last reported at 2018-Feb-18 01:30 UTC. Time now 2018-Feb-18 01:39 UTC.
Position N 44°35' E 037°55'.

Length 166 m; draft 7.3 m.

Type: Cargo ship. MMSI: 477108600.

Date/timePositionNaut miles runAvg speedWind from/ knotsBaromVisibWave heightAir tempDewpointWater temp
2018-Feb-18 01:30N 44°35' E 037°55'0 0.1
2018-Feb-18 01:00N 44°35' E 037°55'0 0.0
2018-Feb-18 00:30N 44°35' E 037°55'0 0.0
2018-Feb-18 00:00N 44°35' E 037°55'0 0.0
2018-Feb-17 23:30N 44°35' E 037°55'0 0.0
2018-Feb-17 23:00N 44°35' E 037°55'0 0.0
2018-Feb-17 22:30N 44°35' E 037°55'0 0.1
2018-Feb-17 22:00N 44°35' E 037°55'0 0.0
2018-Feb-17 21:30N 44°35' E 037°55'0 0.1
2018-Feb-17 21:00N 44°35' E 037°55'0 0.2
2018-Feb-17 20:30N 44°35' E 037°55'0 0.1
2018-Feb-17 20:00N 44°35' E 037°55'0 0.1
2018-Feb-17 19:30N 44°35' E 037°55'0 0.1
2018-Feb-17 19:00N 44°35' E 037°55'0 0.3
2018-Feb-17 18:30N 44°35' E 037°55'0 0.2
2018-Feb-17 18:00N 44°35' E 037°55'0 0.2
2018-Feb-17 17:30N 44°35' E 037°55'0 0.0
2018-Feb-17 17:00N 44°35' E 037°55'0 0.2
2018-Feb-17 16:30N 44°35' E 037°55'0 0.1
2018-Feb-17 16:00N 44°35' E 037°55'0 0.0
2018-Feb-17 15:27N 44°35' E 037°55'0 0.0
2018-Feb-17 15:00N 44°35' E 037°55'0 0.0
2018-Feb-17 14:30N 44°35' E 037°55'0 0.0
2018-Feb-17 14:00N 44°35' E 037°55'0 0.0
2018-Feb-17 13:30N 44°35' E 037°55'0 0.0
2018-Feb-17 13:00N 44°35' E 037°55'0 0.0
2018-Feb-17 12:30N 44°35' E 037°55'0 0.0
2018-Feb-17 12:01N 44°35' E 037°55'0 0.1
2018-Feb-17 11:31N 44°35' E 037°55'1 1.5
2018-Feb-17 11:00N 44°35' E 037°54'1 2.7
2018-Feb-17 10:30N 44°34' E 037°53'3 5.8
2018-Feb-17 10:00N 44°31' E 037°55'1 1.3
2018-Feb-17 09:30N 44°31' E 037°55'0 0.7
2018-Feb-17 09:00N 44°30' E 037°56'0 0.6
2018-Feb-17 08:30N 44°30' E 037°56'0 0.3
2018-Feb-17 08:01N 44°30' E 037°56'1 1.2
2018-Feb-17 07:31N 44°30' E 037°55'2 4.3
2018-Feb-17 07:01N 44°32' E 037°53'510.3
2018-Feb-17 06:30N 44°36' E 037°49'5 9.0
2018-Feb-17 06:01N 44°41' E 037°50'4 7.0
2018-Feb-17 05:30N 44°44' E 037°47'0 0.3
2018-Feb-17 05:00N 44°44' E 037°47'0 0.0
2018-Feb-17 04:30N 44°44' E 037°47'0 0.0
2018-Feb-17 04:00N 44°44' E 037°47'0 0.0
2018-Feb-17 03:30N 44°44' E 037°47'0 0.0
2018-Feb-17 03:00N 44°44' E 037°47'0 0.0
2018-Feb-17 02:29N 44°44' E 037°47'0 0.0
2018-Feb-17 02:00N 44°44' E 037°47'0 0.0
2018-Feb-17 01:30N 44°44' E 037°47'0 0.0
2018-Feb-17 01:00N 44°44' E 037°47'0 0.0
2018-Feb-17 00:29N 44°44' E 037°47'0 0.0
2018-Feb-17 00:00N 44°44' E 037°47'0 0.0
2018-Feb-16 23:30N 44°44' E 037°47'0 0.0
2018-Feb-16 23:00N 44°44' E 037°47'0 0.0
2018-Feb-16 22:30N 44°44' E 037°47'0 0.0
2018-Feb-16 22:00N 44°44' E 037°47'0 0.0
2018-Feb-16 21:30N 44°44' E 037°47'0 0.0
2018-Feb-16 21:00N 44°44' E 037°47'0 0.0
2018-Feb-16 20:30N 44°44' E 037°47'0 0.0
2018-Feb-16 20:00N 44°44' E 037°47'0 0.0
2018-Feb-16 19:30N 44°44' E 037°47'0 0.0
2018-Feb-16 19:00N 44°44' E 037°47'0 0.0
2018-Feb-16 18:29N 44°44' E 037°47'0 0.0
2018-Feb-16 18:00N 44°44' E 037°47'0 0.0
2018-Feb-16 17:30N 44°44' E 037°47'0 0.0
2018-Feb-16 17:00N 44°44' E 037°47'0 0.0
2018-Feb-16 16:23N 44°44' E 037°47'0 0.0
2018-Feb-16 16:00N 44°44' E 037°47'0 0.0
2018-Feb-16 15:30N 44°44' E 037°47'0 0.0
2018-Feb-16 14:59N 44°44' E 037°47'0 0.0
2018-Feb-16 14:29N 44°44' E 037°47'0 0.0
2018-Feb-16 13:59N 44°44' E 037°47'0 0.0
2018-Feb-16 13:30N 44°44' E 037°47'0 0.0
2018-Feb-16 12:56N 44°44' E 037°47'0 0.0
2018-Feb-16 12:29N 44°44' E 037°47'0 0.0
2018-Feb-16 11:59N 44°44' E 037°47'0 0.0
2018-Feb-16 11:29N 44°44' E 037°47'0 0.0
2018-Feb-16 10:59N 44°44' E 037°47'0 0.0
2018-Feb-16 10:30N 44°44' E 037°47'0 0.0
2018-Feb-16 10:00N 44°44' E 037°47'0 0.0
2018-Feb-16 09:29N 44°44' E 037°47'0 0.0
2018-Feb-16 09:00N 44°44' E 037°47'0 0.0
2018-Feb-16 08:29N 44°44' E 037°47'0 0.0
2018-Feb-16 08:00N 44°44' E 037°47'0 0.0
2018-Feb-16 07:29N 44°44' E 037°47'0 0.0
2018-Feb-16 06:59N 44°44' E 037°47'0 0.0
2018-Feb-16 06:30N 44°44' E 037°47'0 0.0
2018-Feb-16 06:00N 44°44' E 037°47'0 0.0
2018-Feb-16 05:29N 44°44' E 037°47'0 0.0
2018-Feb-16 04:54N 44°44' E 037°47'0 0.0
2018-Feb-16 04:29N 44°44' E 037°47'0 0.0
2018-Feb-16 03:59N 44°44' E 037°47'0 0.0
2018-Feb-16 03:29N 44°44' E 037°47'0 0.0
2018-Feb-16 02:59N 44°44' E 037°47'0 0.0
2018-Feb-16 02:29N 44°44' E 037°47'0 0.0
2018-Feb-16 02:00N 44°44' E 037°47'0 0.0
2018-Feb-16 01:29N 44°44' E 037°47'0 0.0
2018-Feb-16 00:56N 44°44' E 037°47'0 0.0
2018-Feb-16 00:29N 44°44' E 037°47'0 0.0
2018-Feb-15 23:59N 44°44' E 037°47'0 0.0
2018-Feb-15 23:29N 44°44' E 037°47'0 0.0
2018-Feb-15 22:59N 44°44' E 037°47'0 0.0
2018-Feb-15 22:29N 44°44' E 037°47'0 0.0
2018-Feb-15 21:59N 44°44' E 037°47'0 0.0
2018-Feb-15 21:29N 44°44' E 037°47'0 0.0
2018-Feb-15 20:56N 44°44' E 037°47'0 0.0
2018-Feb-15 20:29N 44°44' E 037°47'0 0.0
2018-Feb-15 19:59N 44°44' E 037°47'0 0.0
2018-Feb-15 19:29N 44°44' E 037°47'0 0.0
2018-Feb-15 18:59N 44°44' E 037°47'0 0.0
2018-Feb-15 18:29N 44°44' E 037°47'0 0.0
2018-Feb-15 17:59N 44°44' E 037°47'0 0.0
2018-Feb-15 17:29N 44°44' E 037°47'0 0.0
2018-Feb-15 16:59N 44°44' E 037°47'0 0.0
2018-Feb-15 16:29N 44°44' E 037°47'0 0.0
2018-Feb-15 15:59N 44°44' E 037°47'0 0.0
2018-Feb-15 15:29N 44°44' E 037°47'0 0.0
2018-Feb-15 14:59N 44°44' E 037°47'0 0.0
2018-Feb-15 14:29N 44°44' E 037°47'0 0.0
2018-Feb-15 13:59N 44°44' E 037°47'0 0.0
2018-Feb-15 13:29N 44°44' E 037°47'0 0.0
2018-Feb-15 12:59N 44°44' E 037°47'0 0.0
2018-Feb-15 12:29N 44°44' E 037°47'0 0.0
2018-Feb-15 11:59N 44°44' E 037°47'0 0.0
2018-Feb-15 11:29N 44°44' E 037°47'0 0.0
2018-Feb-15 10:59N 44°44' E 037°47'0 0.0
2018-Feb-15 10:29N 44°44' E 037°47'0 0.0
2018-Feb-15 09:59N 44°44' E 037°47'0 0.0
2018-Feb-15 09:29N 44°44' E 037°47'0 0.0
2018-Feb-15 08:59N 44°44' E 037°47'0 0.0
2018-Feb-15 08:29N 44°44' E 037°47'0 0.0
2018-Feb-15 07:59N 44°44' E 037°47'0 0.0
2018-Feb-15 07:29N 44°44' E 037°47'0 0.0
2018-Feb-15 06:59N 44°44' E 037°47'0 0.0
2018-Feb-15 06:23N 44°44' E 037°47'0 0.0
2018-Feb-15 05:59N 44°44' E 037°47'0 0.0
2018-Feb-15 05:29N 44°44' E 037°47'0 0.0
2018-Feb-15 04:59N 44°44' E 037°47'0 0.0
2018-Feb-15 04:29N 44°44' E 037°47'0 0.0
2018-Feb-15 03:59N 44°44' E 037°47'0 0.0
2018-Feb-15 03:29N 44°44' E 037°47'0 0.0
2018-Feb-15 02:59N 44°44' E 037°47'0 0.0
2018-Feb-15 02:29N 44°44' E 037°47'0 0.0
2018-Feb-15 01:59N 44°44' E 037°47'0 0.0
2018-Feb-15 01:29N 44°44' E 037°47'0 0.0
2018-Feb-15 00:59N 44°44' E 037°47'0 0.0
2018-Feb-15 00:29N 44°44' E 037°47'0 0.0
2018-Feb-14 23:59N 44°44' E 037°47'0 0.0
2018-Feb-14 23:29N 44°44' E 037°47'0 0.0
2018-Feb-14 22:59N 44°44' E 037°47'0 0.0
2018-Feb-14 22:29N 44°44' E 037°47'0 0.0
2018-Feb-14 21:59N 44°44' E 037°47'0 0.0
2018-Feb-14 21:29N 44°44' E 037°47'0 0.0
2018-Feb-14 20:59N 44°44' E 037°47'0 0.0
2018-Feb-14 20:29N 44°44' E 037°47'0 0.0
2018-Feb-14 19:59N 44°44' E 037°47'0 0.0
2018-Feb-14 19:29N 44°44' E 037°47'0 0.0
2018-Feb-14 18:59N 44°44' E 037°47'0 0.0
2018-Feb-14 18:29N 44°44' E 037°47'0 0.0
2018-Feb-14 17:59N 44°44' E 037°47'0 0.1
2018-Feb-14 17:30N 44°44' E 037°47'2 3.9
2018-Feb-14 17:00N 44°42' E 037°49'510.1
2018-Feb-14 16:30N 44°37' E 037°51'4 8.0
2018-Feb-14 16:00N 44°33' E 037°51'7 9.7
2018-Feb-14 15:16N 44°36' E 038°01'0 0.0
2018-Feb-14 14:55N 44°36' E 038°01'2047.9
2018-Feb-14 14:30N 44°19' E 037°46'611.2
2018-Feb-14 14:00N 44°18' E 037°38'2 1.1
2018-Feb-14 12:26N 44°18' E 037°40'1 1.5
2018-Feb-14 12:00N 44°18' E 037°41'1 1.5
2018-Feb-14 11:30N 44°18' E 037°42'1 1.5
2018-Feb-14 10:55N 44°18' E 037°43'1 1.6
2018-Feb-14 10:30N 44°18' E 037°44'0 0.5
2018-Feb-14 10:00N 44°17' E 037°44'0 1.0
2018-Feb-14 09:30N 44°17' E 037°45'0 0.9
2018-Feb-14 09:00N 44°16' E 037°45'0 1.0
2018-Feb-14 08:30N 44°16' E 037°45'0 0.8
2018-Feb-14 08:01N 44°16' E 037°46'0 0.7
2018-Feb-14 07:30N 44°16' E 037°46'0 0.7
2018-Feb-14 07:00N 44°15' E 037°47'0 0.7
2018-Feb-14 06:30N 44°15' E 037°47'0 0.8
2018-Feb-14 06:01N 44°15' E 037°47'0 0.7
2018-Feb-14 05:30N 44°15' E 037°48'0 0.6
2018-Feb-14 05:00N 44°14' E 037°48'0 0.6
2018-Feb-14 04:30N 44°14' E 037°48'0 0.5
2018-Feb-14 04:00N 44°14' E 037°49'0 0.4
2018-Feb-14 03:00N 44°14' E 037°49'0 0.3
2018-Feb-14 02:29N 44°14' E 037°50'1 0.5
2018-Feb-14 01:23N 44°15' E 037°50'0 0.5
2018-Feb-14 00:56N 44°15' E 037°50'0 0.5
2018-Feb-14 00:30N 44°15' E 037°50'0 0.4
2018-Feb-13 23:59N 44°16' E 037°50'0 0.6
2018-Feb-13 23:30N 44°16' E 037°50'0 0.7
2018-Feb-13 22:58N 44°16' E 037°50'0 0.6
2018-Feb-13 22:30N 44°16' E 037°49'0 0.6
2018-Feb-13 22:00N 44°17' E 037°49'0 0.7
2018-Feb-13 21:30N 44°17' E 037°49'0 0.8
2018-Feb-13 21:00N 44°17' E 037°48'0 0.7
2018-Feb-13 20:30N 44°17' E 037°48'0 0.7
2018-Feb-13 20:00N 44°18' E 037°47'0 0.7
2018-Feb-13 19:30N 44°18' E 037°47'0 0.6
2018-Feb-13 19:00N 44°18' E 037°47'0 0.6
2018-Feb-13 18:30N 44°18' E 037°46'0 0.6
2018-Feb-13 18:00N 44°18' E 037°46'0 0.5
2018-Feb-13 17:29N 44°18' E 037°46'0 0.4
2018-Feb-13 17:00N 44°18' E 037°45'0 0.5
2018-Feb-13 16:30N 44°18' E 037°45'0 0.6
2018-Feb-13 16:00N 44°18' E 037°45'0 0.6
2018-Feb-13 15:30N 44°19' E 037°44'0 0.6
2018-Feb-13 15:00N 44°19' E 037°44'0 0.6
2018-Feb-13 14:30N 44°19' E 037°44'0 0.6
2018-Feb-13 14:00N 44°19' E 037°43'1 0.6
2018-Feb-13 12:25N 44°19' E 037°42'2 0.8
2018-Feb-13 10:22N 44°19' E 037°40'0 1.0
2018-Feb-13 10:00N 44°19' E 037°39'1 1.1
2018-Feb-13 09:30N 44°18' E 037°38'1 1.1
2018-Feb-13 09:00N 44°18' E 037°38'1 1.2
2018-Feb-13 08:30N 44°18' E 037°37'1 1.3
2018-Feb-13 08:00N 44°17' E 037°37'1 1.2
2018-Feb-13 07:29N 44°17' E 037°36'1 1.2
2018-Feb-13 06:54N 44°16' E 037°36'1 1.2
2018-Feb-13 06:29N 44°16' E 037°35'3 1.4
2018-Feb-13 04:30N 44°13' E 037°34'4 1.4
2018-Feb-13 01:38N 44°09' E 037°33'20 1.9
2018-Feb-12 15:08N 44°19' E 037°58'0 2.0
2018-Feb-12 15:00N 44°18' E 037°57'1 2.4
2018-Feb-12 14:28N 44°19' E 037°56'1 2.2
2018-Feb-12 14:00N 44°19' E 037°54'1 2.2
2018-Feb-12 13:29N 44°19' E 037°53'1 2.1
2018-Feb-12 12:59N 44°19' E 037°51'1 2.1
2018-Feb-12 12:29N 44°20' E 037°50'1 2.2
2018-Feb-12 12:00N 44°20' E 037°48'1 2.3
2018-Feb-12 11:31N 44°20' E 037°47'1 2.2
2018-Feb-12 11:00N 44°20' E 037°45'1 2.2
2018-Feb-12 10:30N 44°20' E 037°44'4 7.4
2018-Feb-12 10:00N 44°23' E 037°45'5 9.7
2018-Feb-12 09:30N 44°28' E 037°46'3 5.6
2018-Feb-12 09:01N 44°31' E 037°46'1 1.8
2018-Feb-12 08:30N 44°30' E 037°45'1 2.1
2018-Feb-12 08:00N 44°30' E 037°44'1311.3
2018-Feb-12 06:54N 44°24' E 037°29'513.1
2018-Feb-12 06:30N 44°22' E 037°22'34011.2
2018-Feb-11 00:09N 43°49' E 029°31'110.1
2018-Feb-11 00:00N 43°49' E 029°29'510.0
2018-Feb-10 23:30N 43°50' E 029°22'510.2
2018-Feb-10 23:01N 43°51' E 029°15'510.4
2018-Feb-10 22:30N 43°51' E 029°08'510.6
2018-Feb-10 22:01N 43°52' E 029°01'611.0
2018-Feb-10 21:31N 43°54' E 028°54'611.8
2018-Feb-10 21:01N 43°59' E 028°48'612.2
2018-Feb-10 20:31N 44°04' E 028°43'5 9.3
2018-Feb-10 20:01N 44°08' E 028°41'2 3.7
2018-Feb-10 19:31N 44°09' E 028°39'0 0.0
2018-Feb-10 18:59N 44°09' E 028°39'0 0.0
2018-Feb-10 18:29N 44°09' E 028°39'0 0.0
2018-Feb-10 17:59N 44°09' E 028°39'0 0.0
2018-Feb-10 17:29N 44°09' E 028°39'0 0.0
2018-Feb-10 16:59N 44°09' E 028°39'0 0.0
2018-Feb-10 16:29N 44°09' E 028°39'0 0.0
2018-Feb-10 15:59N 44°09' E 028°39'0 0.0
2018-Feb-10 15:29N 44°09' E 028°39'0 0.0
2018-Feb-10 14:59N 44°09' E 028°39'0 0.0
2018-Feb-10 14:29N 44°09' E 028°39'0 0.0
2018-Feb-10 13:59N 44°09' E 028°39'0 0.0
2018-Feb-10 13:29N 44°09' E 028°39'0 0.0
2018-Feb-10 12:59N 44°09' E 028°39'0 0.0
2018-Feb-10 12:29N 44°09' E 028°39'0 0.0
2018-Feb-10 11:59N 44°09' E 028°39'0 0.0
2018-Feb-10 11:29N 44°09' E 028°39'0 0.0
2018-Feb-10 10:59N 44°09' E 028°39'0 0.0
2018-Feb-10 10:29N 44°09' E 028°39'0 0.0
2018-Feb-10 09:59N 44°09' E 028°39'0 0.0
2018-Feb-10 09:29N 44°09' E 028°39'0 0.0
2018-Feb-10 08:59N 44°09' E 028°39'0 0.0
2018-Feb-10 08:29N 44°09' E 028°39'0 0.0
2018-Feb-10 07:59N 44°09' E 028°39'0 0.0
2018-Feb-10 07:29N 44°09' E 028°39'0 0.0
2018-Feb-10 06:59N 44°09' E 028°39'0 0.0
2018-Feb-10 06:29N 44°09' E 028°39'0 0.0
2018-Feb-10 05:59N 44°09' E 028°39'0 0.0
2018-Feb-10 05:29N 44°09' E 028°39'0 0.0
2018-Feb-10 04:59N 44°09' E 028°39'0 0.0
2018-Feb-10 04:29N 44°09' E 028°39'0 0.0
2018-Feb-10 03:59N 44°09' E 028°39'0 0.0
2018-Feb-10 03:29N 44°09' E 028°39'0 0.0
2018-Feb-10 02:59N 44°09' E 028°39'0 0.0
2018-Feb-10 02:29N 44°09' E 028°39'0 0.0
2018-Feb-10 01:59N 44°09' E 028°39'0 0.0
2018-Feb-10 01:29N 44°09' E 028°39'0 0.0
2018-Feb-10 00:59N 44°09' E 028°39'0 0.0
2018-Feb-10 00:29N 44°09' E 028°39'0 0.0
2018-Feb-09 23:59N 44°09' E 028°39'0 0.0
2018-Feb-09 23:29N 44°09' E 028°39'0 0.0
2018-Feb-09 22:59N 44°09' E 028°39'0 0.0
2018-Feb-09 22:44N 44°09' E 028°39'0 0.5
2018-Feb-09 22:01N 44°09' E 028°40'3 5.9
2018-Feb-09 21:30N 44°07' E 028°42'3 6.8
2018-Feb-09 21:00N 44°04' E 028°45'5 9.9
2018-Feb-09 20:30N 44°00' E 028°49'510.5
2018-Feb-09 20:01N 43°56' E 028°52'713.9
2018-Feb-09 19:31N 43°49' E 028°53'713.6
2018-Feb-09 19:00N 43°42' E 028°54'713.7
2018-Feb-09 18:30N 43°35' E 028°55'  
Track history (hours):
 
Tides and Currents Weather Stations Pressure Air Temp Water Temp Dewpoint Dewpoint Depression Visibility Wind Speed Wind Dir Waves Ship Positions

Da Tong Yun

Last reported at 2018-Feb-18 01:30 UTC. Time now 2018-Feb-18 01:39 UTC.
Position N 44°35' E 037°55'.

Length 166 m; draft 7.3 m.

Type: Cargo ship. MMSI: 477108600.

Date/timePositionNaut miles runAvg speedWind from/ knotsBaromVisibWave heightAir tempDewpointWater temp
2018-Feb-18 01:30N 44°35' E 037°55'0 0.1
2018-Feb-18 01:00N 44°35' E 037°55'0 0.0
2018-Feb-18 00:30N 44°35' E 037°55'0 0.0
2018-Feb-18 00:00N 44°35' E 037°55'0 0.0
2018-Feb-17 23:30N 44°35' E 037°55'0 0.0
2018-Feb-17 23:00N 44°35' E 037°55'0 0.0
2018-Feb-17 22:30N 44°35' E 037°55'0 0.1
2018-Feb-17 22:00N 44°35' E 037°55'0 0.0
2018-Feb-17 21:30N 44°35' E 037°55'0 0.1
2018-Feb-17 21:00N 44°35' E 037°55'0 0.2
2018-Feb-17 20:30N 44°35' E 037°55'0 0.1
2018-Feb-17 20:00N 44°35' E 037°55'0 0.1
2018-Feb-17 19:30N 44°35' E 037°55'0 0.1
2018-Feb-17 19:00N 44°35' E 037°55'0 0.3
2018-Feb-17 18:30N 44°35' E 037°55'0 0.2
2018-Feb-17 18:00N 44°35' E 037°55'0 0.2
2018-Feb-17 17:30N 44°35' E 037°55'0 0.0
2018-Feb-17 17:00N 44°35' E 037°55'0 0.2
2018-Feb-17 16:30N 44°35' E 037°55'0 0.1
2018-Feb-17 16:00N 44°35' E 037°55'0 0.0
2018-Feb-17 15:27N 44°35' E 037°55'0 0.0
2018-Feb-17 15:00N 44°35' E 037°55'0 0.0
2018-Feb-17 14:30N 44°35' E 037°55'0 0.0
2018-Feb-17 14:00N 44°35' E 037°55'0 0.0
2018-Feb-17 13:30N 44°35' E 037°55'0 0.0
2018-Feb-17 13:00N 44°35' E 037°55'0 0.0
2018-Feb-17 12:30N 44°35' E 037°55'0 0.0
2018-Feb-17 12:01N 44°35' E 037°55'0 0.1
2018-Feb-17 11:31N 44°35' E 037°55'1 1.5
2018-Feb-17 11:00N 44°35' E 037°54'1 2.7
2018-Feb-17 10:30N 44°34' E 037°53'3 5.8
2018-Feb-17 10:00N 44°31' E 037°55'1 1.3
2018-Feb-17 09:30N 44°31' E 037°55'0 0.7
2018-Feb-17 09:00N 44°30' E 037°56'0 0.6
2018-Feb-17 08:30N 44°30' E 037°56'0 0.3
2018-Feb-17 08:01N 44°30' E 037°56'1 1.2
2018-Feb-17 07:31N 44°30' E 037°55'2 4.3
2018-Feb-17 07:01N 44°32' E 037°53'510.3
2018-Feb-17 06:30N 44°36' E 037°49'5 9.0
2018-Feb-17 06:01N 44°41' E 037°50'4 7.0
2018-Feb-17 05:30N 44°44' E 037°47'0 0.3
2018-Feb-17 05:00N 44°44' E 037°47'0 0.0
2018-Feb-17 04:30N 44°44' E 037°47'0 0.0
2018-Feb-17 04:00N 44°44' E 037°47'0 0.0
2018-Feb-17 03:30N 44°44' E 037°47'0 0.0
2018-Feb-17 03:00N 44°44' E 037°47'0 0.0
2018-Feb-17 02:29N 44°44' E 037°47'0 0.0
2018-Feb-17 02:00N 44°44' E 037°47'0 0.0
2018-Feb-17 01:30N 44°44' E 037°47'0 0.0
2018-Feb-17 01:00N 44°44' E 037°47'0 0.0
2018-Feb-17 00:29N 44°44' E 037°47'0 0.0
2018-Feb-17 00:00N 44°44' E 037°47'0 0.0
2018-Feb-16 23:30N 44°44' E 037°47'0 0.0
2018-Feb-16 23:00N 44°44' E 037°47'0 0.0
2018-Feb-16 22:30N 44°44' E 037°47'0 0.0
2018-Feb-16 22:00N 44°44' E 037°47'0 0.0
2018-Feb-16 21:30N 44°44' E 037°47'0 0.0
2018-Feb-16 21:00N 44°44' E 037°47'0 0.0
2018-Feb-16 20:30N 44°44' E 037°47'0 0.0
2018-Feb-16 20:00N 44°44' E 037°47'0 0.0
2018-Feb-16 19:30N 44°44' E 037°47'0 0.0
2018-Feb-16 19:00N 44°44' E 037°47'0 0.0
2018-Feb-16 18:29N 44°44' E 037°47'0 0.0
2018-Feb-16 18:00N 44°44' E 037°47'0 0.0
2018-Feb-16 17:30N 44°44' E 037°47'0 0.0
2018-Feb-16 17:00N 44°44' E 037°47'0 0.0
2018-Feb-16 16:23N 44°44' E 037°47'0 0.0
2018-Feb-16 16:00N 44°44' E 037°47'0 0.0
2018-Feb-16 15:30N 44°44' E 037°47'0 0.0
2018-Feb-16 14:59N 44°44' E 037°47'0 0.0
2018-Feb-16 14:29N 44°44' E 037°47'0 0.0
2018-Feb-16 13:59N 44°44' E 037°47'0 0.0
2018-Feb-16 13:30N 44°44' E 037°47'0 0.0
2018-Feb-16 12:56N 44°44' E 037°47'0 0.0
2018-Feb-16 12:29N 44°44' E 037°47'0 0.0
2018-Feb-16 11:59N 44°44' E 037°47'0 0.0
2018-Feb-16 11:29N 44°44' E 037°47'0 0.0
2018-Feb-16 10:59N 44°44' E 037°47'0 0.0
2018-Feb-16 10:30N 44°44' E 037°47'0 0.0
2018-Feb-16 10:00N 44°44' E 037°47'0 0.0
2018-Feb-16 09:29N 44°44' E 037°47'0 0.0
2018-Feb-16 09:00N 44°44' E 037°47'0 0.0
2018-Feb-16 08:29N 44°44' E 037°47'0 0.0
2018-Feb-16 08:00N 44°44' E 037°47'0 0.0
2018-Feb-16 07:29N 44°44' E 037°47'0 0.0
2018-Feb-16 06:59N 44°44' E 037°47'0 0.0
2018-Feb-16 06:30N 44°44' E 037°47'0 0.0
2018-Feb-16 06:00N 44°44' E 037°47'0 0.0
2018-Feb-16 05:29N 44°44' E 037°47'0 0.0
2018-Feb-16 04:54N 44°44' E 037°47'0 0.0
2018-Feb-16 04:29N 44°44' E 037°47'0 0.0
2018-Feb-16 03:59N 44°44' E 037°47'0 0.0
2018-Feb-16 03:29N 44°44' E 037°47'0 0.0
2018-Feb-16 02:59N 44°44' E 037°47'0 0.0
2018-Feb-16 02:29N 44°44' E 037°47'0 0.0
2018-Feb-16 02:00N 44°44' E 037°47'0 0.0
2018-Feb-16 01:29N 44°44' E 037°47'0 0.0
2018-Feb-16 00:56N 44°44' E 037°47'0 0.0
2018-Feb-16 00:29N 44°44' E 037°47'0 0.0
2018-Feb-15 23:59N 44°44' E 037°47'0 0.0
2018-Feb-15 23:29N 44°44' E 037°47'0 0.0
2018-Feb-15 22:59N 44°44' E 037°47'0 0.0
2018-Feb-15 22:29N 44°44' E 037°47'0 0.0
2018-Feb-15 21:59N 44°44' E 037°47'0 0.0
2018-Feb-15 21:29N 44°44' E 037°47'0 0.0
2018-Feb-15 20:56N 44°44' E 037°47'0 0.0
2018-Feb-15 20:29N 44°44' E 037°47'0 0.0
2018-Feb-15 19:59N 44°44' E 037°47'0 0.0
2018-Feb-15 19:29N 44°44' E 037°47'0 0.0
2018-Feb-15 18:59N 44°44' E 037°47'0 0.0
2018-Feb-15 18:29N 44°44' E 037°47'0 0.0
2018-Feb-15 17:59N 44°44' E 037°47'0 0.0
2018-Feb-15 17:29N 44°44' E 037°47'0 0.0
2018-Feb-15 16:59N 44°44' E 037°47'0 0.0
2018-Feb-15 16:29N 44°44' E 037°47'0 0.0
2018-Feb-15 15:59N 44°44' E 037°47'0 0.0
2018-Feb-15 15:29N 44°44' E 037°47'0 0.0
2018-Feb-15 14:59N 44°44' E 037°47'0 0.0
2018-Feb-15 14:29N 44°44' E 037°47'0 0.0
2018-Feb-15 13:59N 44°44' E 037°47'0 0.0
2018-Feb-15 13:29N 44°44' E 037°47'0 0.0
2018-Feb-15 12:59N 44°44' E 037°47'0 0.0
2018-Feb-15 12:29N 44°44' E 037°47'0 0.0
2018-Feb-15 11:59N 44°44' E 037°47'0 0.0
2018-Feb-15 11:29N 44°44' E 037°47'0 0.0
2018-Feb-15 10:59N 44°44' E 037°47'0 0.0
2018-Feb-15 10:29N 44°44' E 037°47'0 0.0
2018-Feb-15 09:59N 44°44' E 037°47'0 0.0
2018-Feb-15 09:29N 44°44' E 037°47'0 0.0
2018-Feb-15 08:59N 44°44' E 037°47'0 0.0
2018-Feb-15 08:29N 44°44' E 037°47'0 0.0
2018-Feb-15 07:59N 44°44' E 037°47'0 0.0
2018-Feb-15 07:29N 44°44' E 037°47'0 0.0
2018-Feb-15 06:59N 44°44' E 037°47'0 0.0
2018-Feb-15 06:23N 44°44' E 037°47'0 0.0
2018-Feb-15 05:59N 44°44' E 037°47'0 0.0
2018-Feb-15 05:29N 44°44' E 037°47'0 0.0
2018-Feb-15 04:59N 44°44' E 037°47'0 0.0
2018-Feb-15 04:29N 44°44' E 037°47'0 0.0
2018-Feb-15 03:59N 44°44' E 037°47'0 0.0
2018-Feb-15 03:29N 44°44' E 037°47'0 0.0
2018-Feb-15 02:59N 44°44' E 037°47'0 0.0
2018-Feb-15 02:29N 44°44' E 037°47'0 0.0
2018-Feb-15 01:59N 44°44' E 037°47'0 0.0
2018-Feb-15 01:29N 44°44' E 037°47'0 0.0
2018-Feb-15 00:59N 44°44' E 037°47'0 0.0
2018-Feb-15 00:29N 44°44' E 037°47'0 0.0
2018-Feb-14 23:59N 44°44' E 037°47'0 0.0
2018-Feb-14 23:29N 44°44' E 037°47'0 0.0
2018-Feb-14 22:59N 44°44' E 037°47'0 0.0
2018-Feb-14 22:29N 44°44' E 037°47'0 0.0
2018-Feb-14 21:59N 44°44' E 037°47'0 0.0
2018-Feb-14 21:29N 44°44' E 037°47'0 0.0
2018-Feb-14 20:59N 44°44' E 037°47'0 0.0
2018-Feb-14 20:29N 44°44' E 037°47'0 0.0
2018-Feb-14 19:59N 44°44' E 037°47'0 0.0
2018-Feb-14 19:29N 44°44' E 037°47'0 0.0
2018-Feb-14 18:59N 44°44' E 037°47'0 0.0
2018-Feb-14 18:29N 44°44' E 037°47'0 0.0
2018-Feb-14 17:59N 44°44' E 037°47'0 0.1
2018-Feb-14 17:30N 44°44' E 037°47'2 3.9
2018-Feb-14 17:00N 44°42' E 037°49'510.1
2018-Feb-14 16:30N 44°37' E 037°51'4 8.0
2018-Feb-14 16:00N 44°33' E 037°51'7 9.7
2018-Feb-14 15:16N 44°36' E 038°01'0 0.0
2018-Feb-14 14:55N 44°36' E 038°01'2047.9
2018-Feb-14 14:30N 44°19' E 037°46'611.2
2018-Feb-14 14:00N 44°18' E 037°38'2 1.1
2018-Feb-14 12:26N 44°18' E 037°40'1 1.5
2018-Feb-14 12:00N 44°18' E 037°41'1 1.5
2018-Feb-14 11:30N 44°18' E 037°42'1 1.5
2018-Feb-14 10:55N 44°18' E 037°43'1 1.6
2018-Feb-14 10:30N 44°18' E 037°44'0 0.5
2018-Feb-14 10:00N 44°17' E 037°44'0 1.0
2018-Feb-14 09:30N 44°17' E 037°45'0 0.9
2018-Feb-14 09:00N 44°16' E 037°45'0 1.0
2018-Feb-14 08:30N 44°16' E 037°45'0 0.8
2018-Feb-14 08:01N 44°16' E 037°46'0 0.7
2018-Feb-14 07:30N 44°16' E 037°46'0 0.7
2018-Feb-14 07:00N 44°15' E 037°47'0 0.7
2018-Feb-14 06:30N 44°15' E 037°47'0 0.8
2018-Feb-14 06:01N 44°15' E 037°47'0 0.7
2018-Feb-14 05:30N 44°15' E 037°48'0 0.6
2018-Feb-14 05:00N 44°14' E 037°48'0 0.6
2018-Feb-14 04:30N 44°14' E 037°48'0 0.5
2018-Feb-14 04:00N 44°14' E 037°49'0 0.4
2018-Feb-14 03:00N 44°14' E 037°49'0 0.3
2018-Feb-14 02:29N 44°14' E 037°50'1 0.5
2018-Feb-14 01:23N 44°15' E 037°50'0 0.5
2018-Feb-14 00:56N 44°15' E 037°50'0 0.5
2018-Feb-14 00:30N 44°15' E 037°50'0 0.4
2018-Feb-13 23:59N 44°16' E 037°50'0 0.6
2018-Feb-13 23:30N 44°16' E 037°50'0 0.7
2018-Feb-13 22:58N 44°16' E 037°50'0 0.6
2018-Feb-13 22:30N 44°16' E 037°49'0 0.6
2018-Feb-13 22:00N 44°17' E 037°49'0 0.7
2018-Feb-13 21:30N 44°17' E 037°49'0 0.8
2018-Feb-13 21:00N 44°17' E 037°48'0 0.7
2018-Feb-13 20:30N 44°17' E 037°48'0 0.7
2018-Feb-13 20:00N 44°18' E 037°47'0 0.7
2018-Feb-13 19:30N 44°18' E 037°47'0 0.6
2018-Feb-13 19:00N 44°18' E 037°47'0 0.6
2018-Feb-13 18:30N 44°18' E 037°46'0 0.6
2018-Feb-13 18:00N 44°18' E 037°46'0 0.5
2018-Feb-13 17:29N 44°18' E 037°46'0 0.4
2018-Feb-13 17:00N 44°18' E 037°45'0 0.5
2018-Feb-13 16:30N 44°18' E 037°45'0 0.6
2018-Feb-13 16:00N 44°18' E 037°45'0 0.6
2018-Feb-13 15:30N 44°19' E 037°44'0 0.6
2018-Feb-13 15:00N 44°19' E 037°44'0 0.6
2018-Feb-13 14:30N 44°19' E 037°44'0 0.6
2018-Feb-13 14:00N 44°19' E 037°43'1 0.6
2018-Feb-13 12:25N 44°19' E 037°42'2 0.8
2018-Feb-13 10:22N 44°19' E 037°40'0 1.0
2018-Feb-13 10:00N 44°19' E 037°39'1 1.1
2018-Feb-13 09:30N 44°18' E 037°38'1 1.1
2018-Feb-13 09:00N 44°18' E 037°38'1 1.2
2018-Feb-13 08:30N 44°18' E 037°37'1 1.3
2018-Feb-13 08:00N 44°17' E 037°37'1 1.2
2018-Feb-13 07:29N 44°17' E 037°36'1 1.2
2018-Feb-13 06:54N 44°16' E 037°36'1 1.2
2018-Feb-13 06:29N 44°16' E 037°35'3 1.4
2018-Feb-13 04:30N 44°13' E 037°34'4 1.4
2018-Feb-13 01:38N 44°09' E 037°33'20 1.9
2018-Feb-12 15:08N 44°19' E 037°58'0 2.0
2018-Feb-12 15:00N 44°18' E 037°57'1 2.4
2018-Feb-12 14:28N 44°19' E 037°56'1 2.2
2018-Feb-12 14:00N 44°19' E 037°54'1 2.2
2018-Feb-12 13:29N 44°19' E 037°53'1 2.1
2018-Feb-12 12:59N 44°19' E 037°51'1 2.1
2018-Feb-12 12:29N 44°20' E 037°50'1 2.2
2018-Feb-12 12:00N 44°20' E 037°48'1 2.3
2018-Feb-12 11:31N 44°20' E 037°47'1 2.2
2018-Feb-12 11:00N 44°20' E 037°45'1 2.2
2018-Feb-12 10:30N 44°20' E 037°44'4 7.4
2018-Feb-12 10:00N 44°23' E 037°45'5 9.7
2018-Feb-12 09:30N 44°28' E 037°46'3 5.6
2018-Feb-12 09:01N 44°31' E 037°46'1 1.8
2018-Feb-12 08:30N 44°30' E 037°45'1 2.1
2018-Feb-12 08:00N 44°30' E 037°44'1311.3
2018-Feb-12 06:54N 44°24' E 037°29'513.1
2018-Feb-12 06:30N 44°22' E 037°22'34011.2
2018-Feb-11 00:09N 43°49' E 029°31'110.1
2018-Feb-11 00:00N 43°49' E 029°29'510.0
2018-Feb-10 23:30N 43°50' E 029°22'510.2
2018-Feb-10 23:01N 43°51' E 029°15'510.4
2018-Feb-10 22:30N 43°51' E 029°08'510.6
2018-Feb-10 22:01N 43°52' E 029°01'611.0
2018-Feb-10 21:31N 43°54' E 028°54'611.8
2018-Feb-10 21:01N 43°59' E 028°48'612.2
2018-Feb-10 20:31N 44°04' E 028°43'5 9.3
2018-Feb-10 20:01N 44°08' E 028°41'2 3.7
2018-Feb-10 19:31N 44°09' E 028°39'0 0.0
2018-Feb-10 18:59N 44°09' E 028°39'0 0.0
2018-Feb-10 18:29N 44°09' E 028°39'0 0.0
2018-Feb-10 17:59N 44°09' E 028°39'0 0.0
2018-Feb-10 17:29N 44°09' E 028°39'0 0.0
2018-Feb-10 16:59N 44°09' E 028°39'0 0.0
2018-Feb-10 16:29N 44°09' E 028°39'0 0.0
2018-Feb-10 15:59N 44°09' E 028°39'0 0.0
2018-Feb-10 15:29N 44°09' E 028°39'0 0.0
2018-Feb-10 14:59N 44°09' E 028°39'0 0.0
2018-Feb-10 14:29N 44°09' E 028°39'0 0.0
2018-Feb-10 13:59N 44°09' E 028°39'0 0.0
2018-Feb-10 13:29N 44°09' E 028°39'0 0.0
2018-Feb-10 12:59N 44°09' E 028°39'0 0.0
2018-Feb-10 12:29N 44°09' E 028°39'0 0.0
2018-Feb-10 11:59N 44°09' E 028°39'0 0.0
2018-Feb-10 11:29N 44°09' E 028°39'0 0.0
2018-Feb-10 10:59N 44°09' E 028°39'0 0.0
2018-Feb-10 10:29N 44°09' E 028°39'0 0.0
2018-Feb-10 09:59N 44°09' E 028°39'0 0.0
2018-Feb-10 09:29N 44°09' E 028°39'0 0.0
2018-Feb-10 08:59N 44°09' E 028°39'0 0.0
2018-Feb-10 08:29N 44°09' E 028°39'0 0.0
2018-Feb-10 07:59N 44°09' E 028°39'0 0.0
2018-Feb-10 07:29N 44°09' E 028°39'0 0.0
2018-Feb-10 06:59N 44°09' E 028°39'0 0.0
2018-Feb-10 06:29N 44°09' E 028°39'0 0.0
2018-Feb-10 05:59N 44°09' E 028°39'0 0.0
2018-Feb-10 05:29N 44°09' E 028°39'0 0.0
2018-Feb-10 04:59N 44°09' E 028°39'0 0.0
2018-Feb-10 04:29N 44°09' E 028°39'0 0.0
2018-Feb-10 03:59N 44°09' E 028°39'0 0.0
2018-Feb-10 03:29N 44°09' E 028°39'0 0.0
2018-Feb-10 02:59N 44°09' E 028°39'0 0.0
2018-Feb-10 02:29N 44°09' E 028°39'0 0.0
2018-Feb-10 01:59N 44°09' E 028°39'0 0.0
2018-Feb-10 01:29N 44°09' E 028°39'0 0.0
2018-Feb-10 00:59N 44°09' E 028°39'0 0.0
2018-Feb-10 00:29N 44°09' E 028°39'0 0.0
2018-Feb-09 23:59N 44°09' E 028°39'0 0.0
2018-Feb-09 23:29N 44°09' E 028°39'0 0.0
2018-Feb-09 22:59N 44°09' E 028°39'0 0.0
2018-Feb-09 22:44N 44°09' E 028°39'0 0.5
2018-Feb-09 22:01N 44°09' E 028°40'3 5.9
2018-Feb-09 21:30N 44°07' E 028°42'3 6.8
2018-Feb-09 21:00N 44°04' E 028°45'5 9.9
2018-Feb-09 20:30N 44°00' E 028°49'510.5
2018-Feb-09 20:01N 43°56' E 028°52'713.9
2018-Feb-09 19:31N 43°49' E 028°53'713.6
2018-Feb-09 19:00N 43°42' E 028°54'713.7
2018-Feb-09 18:30N 43°35' E 028°55'  

Dump ship's entire track history